createdAt,value
2023-05-20T00:01:42.519Z,2.17
2023-05-20T00:04:09.570Z,1.60
2023-05-20T00:06:36.656Z,1.40
2023-05-20T00:09:03.764Z,1.48
2023-05-20T00:11:31.469Z,1.52
2023-05-20T00:13:58.415Z,1.65
2023-05-20T00:16:25.530Z,2.10
2023-05-20T00:18:52.581Z,1.60
2023-05-20T00:21:19.660Z,1.77
2023-05-20T00:23:46.607Z,1.63
2023-05-20T00:26:13.640Z,1.42
2023-05-20T00:28:40.609Z,1.60
2023-05-20T00:31:07.599Z,2.00
2023-05-20T00:33:36.373Z,1.67
2023-05-20T00:36:03.431Z,1.73
2023-05-20T00:38:30.515Z,1.42
2023-05-20T00:40:57.422Z,1.27
2023-05-20T00:43:25.559Z,1.90
2023-05-20T00:45:54.217Z,1.48
2023-05-20T00:48:22.164Z,1.80
2023-05-20T00:50:50.587Z,1.50
2023-05-20T00:53:21.448Z,1.73
2023-05-20T00:55:48.711Z,1.60
2023-05-20T00:58:15.898Z,1.30
2023-05-20T01:00:43.407Z,1.40
2023-05-20T01:03:11.053Z,1.50
2023-05-20T01:05:39.924Z,1.20
2023-05-20T01:08:09.220Z,1.25
2023-05-20T01:10:46.681Z,1.38
2023-05-20T01:13:17.519Z,1.67
2023-05-20T01:15:48.441Z,1.40
2023-05-20T01:18:18.415Z,1.60
2023-05-20T01:20:49.814Z,1.33
2023-05-20T01:23:17.349Z,1.60
2023-05-20T01:25:44.334Z,2.00
2023-05-20T01:28:17.884Z,1.70
2023-05-20T01:30:52.666Z,1.47
2023-05-20T01:33:22.008Z,1.70
2023-05-20T01:35:49.173Z,1.63
2023-05-20T01:38:17.953Z,1.70
2023-05-20T01:40:46.344Z,1.40
2023-05-20T01:43:16.226Z,1.50
2023-05-20T01:45:45.011Z,1.33
2023-05-20T01:48:12.465Z,1.30
2023-05-20T01:50:39.736Z,1.40
2023-05-20T01:53:09.613Z,1.48
2023-05-20T01:55:36.631Z,1.50
2023-05-20T01:58:03.799Z,1.40
2023-05-20T02:00:34.149Z,1.65
2023-05-20T02:03:01.651Z,1.40
2023-05-20T02:05:28.614Z,1.45
2023-05-20T02:07:55.726Z,1.20
2023-05-20T02:10:22.647Z,1.77
2023-05-20T02:12:49.664Z,1.40
2023-05-20T02:15:16.645Z,1.58
2023-05-20T02:17:47.201Z,1.33
2023-05-20T02:20:14.223Z,1.50
2023-05-20T02:22:41.377Z,1.40
2023-05-20T02:25:09.477Z,1.83
2023-05-20T02:27:36.528Z,1.30
2023-05-20T02:30:03.560Z,1.13
2023-05-20T02:32:30.594Z,1.30
2023-05-20T02:34:57.581Z,1.30
2023-05-20T02:37:24.598Z,1.67
2023-05-20T02:39:51.669Z,1.30
2023-05-20T02:42:18.667Z,1.38
2023-05-20T02:44:45.633Z,1.50
2023-05-20T02:47:12.569Z,1.33
2023-05-20T02:49:39.535Z,1.60
2023-05-20T02:52:06.826Z,1.65
2023-05-20T02:54:34.062Z,1.42
2023-05-20T02:57:01.032Z,1.65
2023-05-20T02:59:27.975Z,1.45
2023-05-20T03:01:54.977Z,1.40
2023-05-20T03:04:22.111Z,1.50
2023-05-20T03:06:49.155Z,1.98
2023-05-20T03:09:16.105Z,1.33
2023-05-20T03:11:43.194Z,1.27
2023-05-20T03:14:10.136Z,1.63
2023-05-20T03:16:37.149Z,1.42
2023-05-20T03:19:04.119Z,2.13
2023-05-20T03:21:31.169Z,1.38
2023-05-20T03:23:58.094Z,1.60
2023-05-20T03:26:25.822Z,1.50
2023-05-20T03:28:52.800Z,1.33
2023-05-20T03:31:20.125Z,1.35
2023-05-20T03:33:47.135Z,1.40
2023-05-20T03:36:14.258Z,1.75
2023-05-20T03:38:41.449Z,1.77
2023-05-20T03:41:08.519Z,1.67
2023-05-20T03:43:35.690Z,1.55
2023-05-20T03:46:02.685Z,1.55
2023-05-20T03:48:29.692Z,1.55
2023-05-20T03:50:56.604Z,1.65
2023-05-20T03:53:23.613Z,1.80
2023-05-20T03:55:50.705Z,1.50
2023-05-20T03:58:17.680Z,1.70
2023-05-20T04:00:44.681Z,1.48
2023-05-20T04:03:11.852Z,1.75
2023-05-20T04:05:39.258Z,1.45
2023-05-20T04:08:06.195Z,1.45
2023-05-20T04:10:33.856Z,1.45
2023-05-20T04:13:00.791Z,1.80
2023-05-20T04:15:29.868Z,2.10
2023-05-20T04:17:57.015Z,1.45
2023-05-20T04:20:24.574Z,1.80
2023-05-20T04:22:52.473Z,1.63
2023-05-20T04:25:19.762Z,1.23
2023-05-20T04:27:46.822Z,1.77
2023-05-20T04:30:14.192Z,1.48
2023-05-20T04:32:41.735Z,1.67
2023-05-20T04:35:11.870Z,1.45
2023-05-20T04:37:42.563Z,1.85
2023-05-20T04:40:10.796Z,1.60
2023-05-20T04:42:37.953Z,1.52
2023-05-20T04:45:06.073Z,2.00
2023-05-20T04:47:39.301Z,1.60
2023-05-20T04:50:10.947Z,1.50
2023-05-20T04:52:46.268Z,2.05
2023-05-20T04:55:13.746Z,1.75
2023-05-20T04:57:42.192Z,1.67
2023-05-20T05:00:11.501Z,1.70
2023-05-20T05:02:39.073Z,3.10
2023-05-20T05:05:06.862Z,1.90
2023-05-20T05:07:33.875Z,1.95
2023-05-20T05:10:01.406Z,2.35
2023-05-20T05:12:28.554Z,1.40
2023-05-20T05:14:55.466Z,1.80
2023-05-20T05:17:22.442Z,1.45
2023-05-20T05:19:49.479Z,2.30
2023-05-20T05:22:16.632Z,1.90
2023-05-20T05:24:43.560Z,1.80
2023-05-20T05:27:10.623Z,1.80
2023-05-20T05:29:37.602Z,2.00
2023-05-20T05:32:04.904Z,1.70
2023-05-20T05:34:31.852Z,1.80
2023-05-20T05:36:58.886Z,1.77
2023-05-20T05:39:25.799Z,1.83
2023-05-20T05:41:54.306Z,1.65
2023-05-20T05:44:21.256Z,1.95
2023-05-20T05:46:48.264Z,1.80
2023-05-20T05:49:15.325Z,1.90
2023-05-20T05:51:42.335Z,1.80
2023-05-20T05:54:09.390Z,1.90
2023-05-20T05:56:36.308Z,1.73
2023-05-20T05:59:04.726Z,2.22
2023-05-20T06:01:31.805Z,2.13
2023-05-20T06:03:58.928Z,2.15
2023-05-20T06:06:26.436Z,1.70
2023-05-20T06:08:53.374Z,2.13
2023-05-20T06:11:20.978Z,2.00
2023-05-20T06:13:47.923Z,2.05
2023-05-20T06:16:14.911Z,2.72
2023-05-20T06:18:41.953Z,1.85
2023-05-20T06:21:09.247Z,2.42
2023-05-20T06:23:36.210Z,1.95
2023-05-20T06:26:03.737Z,2.20
2023-05-20T06:28:31.350Z,2.50
2023-05-20T06:30:58.379Z,2.38
2023-05-20T06:33:26.329Z,2.20
2023-05-20T06:35:54.054Z,2.20
2023-05-20T06:38:21.311Z,3.35
2023-05-20T06:40:51.534Z,2.22
2023-05-20T06:43:18.679Z,2.53
2023-05-20T06:45:45.869Z,1.83
2023-05-20T06:48:12.862Z,2.83
2023-05-20T06:50:39.942Z,2.00
2023-05-20T06:53:06.904Z,2.28
2023-05-20T06:55:33.974Z,2.60
2023-05-20T06:58:01.088Z,1.90
2023-05-20T07:00:28.060Z,1.95
2023-05-20T07:02:55.105Z,2.42
2023-05-20T07:05:22.133Z,2.03
2023-05-20T07:07:49.130Z,2.20
2023-05-20T07:10:16.127Z,2.13
2023-05-20T07:12:43.088Z,2.20
2023-05-20T07:15:10.509Z,1.90
2023-05-20T07:17:37.570Z,2.35
2023-05-20T07:20:05.009Z,1.98
2023-05-20T07:22:32.179Z,2.55
2023-05-20T07:25:00.403Z,2.10
2023-05-20T07:27:27.523Z,2.38
2023-05-20T07:29:54.551Z,2.00
2023-05-20T07:32:21.644Z,2.30
2023-05-20T07:34:48.630Z,2.45
2023-05-20T07:37:16.315Z,2.30
2023-05-20T07:39:43.345Z,2.22
2023-05-20T07:42:10.491Z,2.53
2023-05-20T07:44:37.495Z,2.20
2023-05-20T07:47:04.887Z,1.92
2023-05-20T07:49:31.814Z,2.25
2023-05-20T07:52:00.436Z,2.22
2023-05-20T07:54:29.068Z,2.40
2023-05-20T07:56:56.009Z,2.38
2023-05-20T07:59:23.232Z,2.42
2023-05-20T08:01:50.229Z,2.92
2023-05-20T08:04:17.389Z,3.33
2023-05-20T08:06:44.693Z,2.83
2023-05-20T08:09:11.917Z,2.50
2023-05-20T08:11:38.881Z,2.55
2023-05-20T08:14:06.381Z,2.13
2023-05-20T08:16:33.427Z,2.13
2023-05-20T08:19:00.630Z,2.40
2023-05-20T08:25:15.368Z,2.17
2023-05-20T08:27:42.345Z,2.40
2023-05-20T08:30:10.094Z,2.25
2023-05-20T08:32:37.646Z,2.38
2023-05-20T08:35:05.513Z,2.25
2023-05-20T08:37:32.700Z,2.60
2023-05-20T08:39:59.670Z,2.25
2023-05-20T08:42:29.222Z,2.72
2023-05-20T08:44:57.573Z,2.20
2023-05-20T08:47:24.830Z,2.42
2023-05-20T08:49:51.856Z,2.47
2023-05-20T08:52:21.770Z,2.70
2023-05-20T08:54:50.239Z,2.30
2023-05-20T08:57:17.907Z,2.55
2023-05-20T08:59:51.266Z,2.47
2023-05-20T09:02:18.237Z,2.90
2023-05-20T09:04:45.396Z,2.63
2023-05-20T09:07:12.450Z,2.75
2023-05-20T09:09:39.491Z,2.58
2023-05-20T09:12:06.954Z,3.05
2023-05-20T09:14:33.902Z,2.58
2023-05-20T09:17:00.857Z,2.50
2023-05-20T09:19:28.114Z,2.95
2023-05-20T09:21:55.496Z,2.47
2023-05-20T09:24:26.732Z,2.60
2023-05-20T09:26:54.112Z,2.83
2023-05-20T09:29:22.006Z,2.50
2023-05-20T09:31:50.296Z,2.80
2023-05-20T09:34:18.007Z,2.50
2023-05-20T09:36:45.676Z,2.22
2023-05-20T09:39:19.317Z,2.33
2023-05-20T09:41:56.853Z,2.75
2023-05-20T09:44:24.106Z,3.10
2023-05-20T09:46:53.411Z,2.75
2023-05-20T09:49:23.711Z,3.10
2023-05-20T09:51:52.023Z,2.53
2023-05-20T09:54:19.984Z,2.90
2023-05-20T09:56:48.253Z,2.70
2023-05-20T09:59:21.789Z,3.03
2023-05-20T10:01:48.945Z,2.80
2023-05-20T10:04:17.478Z,3.00
2023-05-20T10:07:12.889Z,3.10
2023-05-20T10:10:17.375Z,2.85
2023-05-20T10:12:56.467Z,2.78
2023-05-20T10:15:30.923Z,2.95
2023-05-20T10:18:09.953Z,2.88
2023-05-20T10:20:47.402Z,2.88
2023-05-20T10:23:25.120Z,2.85
2023-05-20T10:25:53.789Z,2.83
2023-05-20T10:28:33.164Z,3.33
2023-05-20T10:31:01.001Z,3.13
2023-05-20T10:33:28.637Z,3.08
2023-05-20T10:36:02.735Z,2.75
2023-05-20T10:44:45.017Z,3.28
2023-05-20T10:49:48.317Z,3.25
2023-05-20T10:52:16.994Z,2.83
2023-05-20T10:54:51.559Z,4.15
2023-05-20T10:57:19.109Z,3.03
2023-05-20T10:59:47.659Z,2.95
2023-05-20T11:02:17.150Z,3.00
2023-05-20T11:04:45.108Z,2.90
2023-05-20T11:07:12.230Z,3.25
2023-05-20T11:09:39.621Z,3.10
2023-05-20T11:12:07.009Z,3.95
2023-05-20T11:14:35.302Z,2.65
2023-05-20T11:17:02.485Z,2.75
2023-05-20T11:19:29.590Z,4.18
2023-05-20T11:21:56.764Z,2.90
2023-05-20T11:24:28.416Z,3.13
2023-05-20T11:26:57.677Z,3.10
2023-05-20T11:29:27.090Z,3.30
2023-05-20T11:31:54.040Z,2.90
2023-05-20T11:34:26.877Z,3.03
2023-05-20T11:36:59.058Z,2.80
2023-05-20T11:39:29.793Z,3.92
2023-05-20T11:41:57.686Z,3.20
2023-05-20T11:44:24.941Z,2.80
2023-05-20T11:46:52.266Z,3.63
2023-05-20T11:49:19.250Z,3.67
2023-05-20T11:51:46.256Z,4.75
2023-05-20T11:54:13.205Z,3.15
2023-05-20T11:56:43.221Z,4.15
2023-05-20T11:59:11.056Z,3.65
2023-05-20T12:01:45.982Z,3.72
2023-05-20T12:04:17.711Z,3.47
2023-05-20T12:06:44.830Z,3.30
2023-05-20T12:09:12.094Z,3.45
2023-05-20T12:11:41.662Z,3.00
2023-05-20T12:14:09.733Z,3.58
2023-05-20T12:16:38.017Z,3.10
2023-05-20T12:19:05.514Z,4.43
2023-05-20T12:21:32.597Z,3.28
2023-05-20T12:24:00.232Z,3.70
2023-05-20T12:26:29.054Z,3.40
2023-05-20T12:28:56.827Z,3.15
2023-05-20T12:31:24.580Z,3.75
2023-05-20T12:33:51.669Z,3.50
2023-05-20T12:36:19.875Z,3.25
2023-05-20T12:38:47.914Z,3.30
2023-05-20T12:41:14.840Z,3.17
2023-05-20T12:43:41.855Z,2.90
2023-05-20T12:46:08.917Z,2.97
2023-05-20T12:48:37.036Z,2.80
2023-05-20T12:51:04.246Z,3.17
2023-05-20T12:53:31.249Z,3.13
2023-05-20T12:55:58.241Z,3.17
2023-05-20T12:58:25.195Z,3.85
2023-05-20T13:00:52.221Z,3.72
2023-05-20T13:03:19.319Z,3.92
2023-05-20T13:05:46.355Z,4.25
2023-05-20T13:08:14.985Z,3.60
2023-05-20T13:10:42.153Z,3.35
2023-05-20T13:13:09.177Z,4.25
2023-05-20T13:15:36.968Z,4.03
2023-05-20T13:18:06.808Z,2.90
2023-05-20T13:20:34.166Z,2.83
2023-05-20T13:23:01.276Z,2.83
2023-05-20T13:25:28.295Z,2.45
2023-05-20T13:27:55.927Z,2.97
2023-05-20T13:30:23.276Z,2.90
2023-05-20T13:32:50.334Z,3.17
2023-05-20T13:35:17.609Z,3.05
2023-05-20T13:37:44.908Z,2.90
2023-05-20T13:40:12.458Z,3.17
2023-05-20T13:42:39.445Z,2.88
2023-05-20T13:45:07.091Z,2.60
2023-05-20T13:47:34.104Z,3.00
2023-05-20T13:50:03.095Z,3.15
2023-05-20T13:52:30.401Z,2.90
2023-05-20T13:54:57.394Z,2.70
2023-05-20T13:57:24.349Z,2.38
2023-05-20T13:59:51.352Z,2.78
2023-05-20T14:02:18.749Z,3.42
2023-05-20T14:04:47.161Z,2.58
2023-05-20T14:07:14.322Z,2.95
2023-05-20T14:09:41.467Z,2.92
2023-05-20T14:12:08.726Z,2.80
2023-05-20T14:14:35.775Z,2.60
2023-05-20T14:17:02.775Z,3.00
2023-05-20T14:19:30.221Z,2.42
2023-05-20T14:21:59.001Z,2.05
2023-05-20T14:24:25.959Z,3.78
2023-05-20T14:26:53.426Z,2.90
2023-05-20T14:29:20.560Z,2.35
2023-05-20T14:31:47.618Z,2.15
2023-05-20T14:34:14.625Z,2.15
2023-05-20T14:36:41.630Z,2.10
2023-05-20T14:39:08.613Z,2.20
2023-05-20T14:41:35.562Z,3.05
2023-05-20T14:44:02.518Z,2.35
2023-05-20T14:46:29.524Z,2.00
2023-05-20T14:48:56.569Z,2.42
2023-05-20T14:51:23.520Z,2.95
2023-05-20T14:53:50.653Z,2.58
2023-05-20T14:56:17.703Z,2.60
2023-05-20T14:58:44.681Z,2.10
2023-05-20T15:01:11.681Z,2.45
2023-05-20T15:03:38.760Z,2.10
2023-05-20T15:06:06.322Z,2.20
2023-05-20T15:08:33.277Z,3.40
2023-05-20T15:11:00.313Z,2.22
2023-05-20T15:13:27.273Z,2.30
2023-05-20T15:15:54.317Z,2.13
2023-05-20T15:18:21.324Z,2.13
2023-05-20T15:20:48.276Z,2.20
2023-05-20T15:23:17.242Z,2.42
2023-05-20T15:25:44.431Z,1.90
2023-05-20T15:28:11.365Z,2.67
2023-05-20T15:30:38.453Z,2.85
2023-05-20T15:33:05.587Z,2.30
2023-05-20T15:35:32.688Z,2.67
2023-05-20T15:37:59.727Z,2.13
2023-05-20T15:40:26.768Z,2.33
2023-05-20T15:42:53.717Z,2.00
2023-05-20T15:45:21.059Z,2.15
2023-05-20T15:47:48.137Z,1.92
2023-05-20T15:50:15.105Z,2.20
2023-05-20T15:52:42.101Z,2.20
2023-05-20T15:55:10.150Z,2.17
2023-05-20T15:57:37.166Z,2.55
2023-05-20T16:00:07.137Z,2.42
2023-05-20T16:02:36.233Z,2.20
2023-05-20T16:05:04.417Z,2.00
2023-05-20T16:07:31.497Z,1.90
2023-05-20T16:09:58.526Z,2.13
2023-05-20T16:12:25.496Z,2.30
2023-05-20T16:14:52.460Z,2.70
2023-05-20T16:17:21.478Z,2.53
2023-05-20T16:19:49.169Z,1.98
2023-05-20T16:22:17.967Z,1.98
2023-05-20T16:24:45.211Z,2.05
2023-05-20T16:27:12.224Z,2.45
2023-05-20T16:29:42.037Z,1.90
2023-05-20T16:32:09.033Z,2.25
2023-05-20T16:34:36.038Z,2.30
2023-05-20T16:37:02.990Z,2.50
2023-05-20T16:39:30.126Z,2.60
2023-05-20T16:41:57.085Z,2.33
2023-05-20T16:44:24.087Z,2.20
2023-05-20T16:46:53.370Z,2.00
2023-05-20T16:49:21.343Z,1.98
2023-05-20T16:51:48.497Z,1.75
2023-05-20T16:54:15.490Z,1.98
2023-05-20T16:56:42.451Z,2.38
2023-05-20T16:59:09.435Z,2.03
2023-05-20T17:01:37.099Z,2.10
2023-05-20T17:04:04.320Z,2.00
2023-05-20T17:06:34.373Z,2.00
2023-05-20T17:09:04.121Z,2.25
2023-05-20T17:11:31.163Z,1.80
2023-05-20T17:13:58.100Z,1.80
2023-05-20T17:16:25.242Z,2.03
2023-05-20T17:18:53.639Z,2.33
2023-05-20T17:21:20.836Z,2.58
2023-05-20T17:23:47.849Z,2.10
2023-05-20T17:26:15.530Z,2.00
2023-05-20T17:28:43.076Z,2.20
2023-05-20T17:31:10.176Z,2.20
2023-05-20T17:33:37.247Z,2.35
2023-05-20T17:36:04.601Z,2.20
2023-05-20T17:38:31.574Z,2.40
2023-05-20T17:40:58.464Z,2.47
2023-05-20T17:43:25.730Z,2.30
2023-05-20T17:45:52.788Z,2.50
2023-05-20T17:48:20.036Z,2.30
2023-05-20T17:50:47.069Z,2.40
2023-05-20T17:53:14.230Z,2.65
2023-05-20T17:55:41.184Z,2.30
2023-05-20T17:58:08.165Z,2.33
2023-05-20T18:00:42.248Z,2.50
2023-05-20T18:03:10.484Z,2.35
2023-05-20T18:05:38.092Z,2.17
2023-05-20T18:08:05.348Z,2.10
2023-05-20T18:10:32.521Z,2.38
2023-05-20T18:12:59.755Z,2.42
2023-05-20T18:15:26.743Z,2.10
2023-05-20T18:17:54.347Z,2.42
2023-05-20T18:20:21.774Z,2.60
2023-05-20T18:22:50.626Z,4.32
2023-05-20T18:25:17.865Z,2.17
2023-05-20T18:27:44.836Z,2.28
2023-05-20T18:30:11.838Z,2.40
2023-05-20T18:32:39.303Z,2.50
2023-05-20T18:35:06.905Z,2.20
2023-05-20T18:37:34.000Z,2.00
2023-05-20T18:40:01.075Z,2.95
2023-05-20T18:42:28.121Z,2.40
2023-05-20T18:44:55.235Z,2.60
2023-05-20T18:47:22.294Z,2.38
2023-05-20T18:53:30.051Z,2.10
2023-05-20T18:56:01.347Z,2.53
2023-05-20T19:02:09.256Z,2.13
2023-05-20T19:04:36.209Z,2.45
2023-05-20T19:07:03.783Z,3.17
2023-05-20T19:09:30.834Z,2.20
2023-05-20T19:11:59.182Z,2.50
2023-05-20T19:14:26.407Z,2.53
2023-05-20T19:16:53.580Z,2.33
2023-05-20T19:19:20.716Z,2.72
2023-05-20T19:21:48.228Z,2.53
2023-05-20T19:24:15.448Z,2.40
2023-05-20T19:26:42.455Z,2.28
2023-05-20T19:29:09.491Z,2.20
2023-05-20T19:31:37.172Z,2.17
2023-05-20T19:34:04.131Z,2.45
2023-05-20T19:36:31.257Z,2.45
2023-05-20T19:38:58.564Z,3.33
2023-05-20T19:41:26.179Z,2.13
2023-05-20T19:43:53.142Z,2.63
2023-05-20T19:46:20.185Z,2.80
2023-05-20T19:48:47.198Z,2.25
2023-05-20T19:51:14.146Z,2.17
2023-05-20T19:53:41.075Z,2.10
2023-05-20T19:56:08.195Z,2.42
2023-05-20T19:58:35.398Z,2.22
2023-05-20T20:01:02.782Z,2.10
2023-05-20T20:03:29.753Z,1.90
2023-05-20T20:05:57.273Z,2.30
2023-05-20T20:08:24.402Z,2.45
2023-05-20T20:10:51.486Z,2.00
2023-05-20T20:13:18.494Z,2.25
2023-05-20T20:15:45.627Z,2.10
2023-05-20T20:18:12.623Z,2.17
2023-05-20T20:20:42.721Z,2.40
2023-05-20T20:23:10.330Z,2.00
2023-05-20T20:25:39.178Z,2.13
2023-05-20T20:28:07.465Z,2.58
2023-05-20T20:30:35.317Z,2.27
2023-05-20T20:33:06.368Z,2.30
2023-05-20T20:35:34.225Z,2.35
2023-05-20T20:38:08.486Z,2.17
2023-05-20T20:40:39.648Z,2.70
2023-05-20T20:43:07.097Z,2.58
2023-05-20T20:45:36.922Z,2.78
2023-05-20T20:48:08.403Z,2.30
2023-05-20T20:50:36.646Z,2.72
2023-05-20T20:53:03.678Z,2.40
2023-05-20T20:55:30.815Z,2.50
2023-05-20T20:57:58.419Z,2.38
2023-05-20T21:00:27.052Z,2.42
2023-05-20T21:02:54.086Z,2.40
2023-05-20T21:05:21.720Z,2.88
2023-05-20T21:07:52.673Z,2.40
2023-05-20T21:10:19.727Z,2.60
2023-05-20T21:12:46.698Z,2.65
2023-05-20T21:15:15.152Z,2.90
2023-05-20T21:17:42.253Z,2.85
2023-05-20T21:20:09.928Z,2.92
2023-05-20T21:22:36.943Z,2.80
2023-05-20T21:25:04.220Z,2.80
2023-05-20T21:27:31.217Z,3.38
2023-05-20T21:29:58.188Z,2.40
2023-05-20T21:32:25.253Z,2.58
2023-05-20T21:34:52.234Z,2.80
2023-05-20T21:37:19.217Z,2.88
2023-05-20T21:39:46.228Z,2.80
2023-05-20T21:42:13.411Z,2.97
2023-05-20T21:44:40.357Z,2.90
2023-05-20T21:47:07.291Z,3.35
2023-05-20T21:49:34.283Z,2.85
2023-05-20T21:52:01.263Z,2.80
2023-05-20T21:54:28.329Z,3.00
2023-05-20T21:56:55.377Z,3.63
2023-05-20T21:59:22.334Z,2.80
2023-05-20T22:01:51.004Z,3.97
2023-05-20T22:04:19.018Z,3.38
2023-05-20T22:06:45.946Z,3.28
2023-05-20T22:09:12.941Z,3.13
2023-05-20T22:11:39.889Z,3.63
2023-05-20T22:14:06.840Z,3.20
2023-05-20T22:16:34.290Z,3.70
2023-05-20T22:19:02.755Z,3.33
2023-05-20T22:21:32.087Z,3.63
2023-05-20T22:24:01.265Z,3.00
2023-05-20T22:26:28.564Z,3.22
2023-05-20T22:28:55.545Z,3.20
2023-05-20T22:31:22.544Z,3.53
2023-05-20T22:33:49.672Z,3.53
2023-05-20T22:36:16.616Z,3.40
2023-05-20T22:38:43.591Z,3.80
2023-05-20T22:41:10.916Z,4.10
2023-05-20T22:43:37.885Z,4.68
2023-05-20T22:46:04.869Z,4.03
2023-05-20T22:48:31.905Z,4.28
2023-05-20T22:50:58.875Z,4.95
2023-05-20T22:53:25.815Z,5.60
2023-05-20T22:55:52.978Z,4.75
2023-05-20T22:58:19.883Z,4.93
2023-05-20T23:00:46.956Z,4.40
2023-05-20T23:03:13.972Z,5.00
2023-05-20T23:05:41.117Z,5.90
2023-05-20T23:08:08.126Z,5.65
2023-05-20T23:10:35.226Z,6.20
2023-05-20T23:13:02.276Z,6.28
2023-05-20T23:15:31.170Z,6.25
2023-05-20T23:17:58.786Z,6.22
2023-05-20T23:20:25.901Z,4.00
2023-05-20T23:22:52.956Z,4.70
2023-05-20T23:25:20.094Z,4.22
2023-05-20T23:27:47.080Z,4.05
2023-05-20T23:30:14.294Z,4.30
2023-05-20T23:32:41.578Z,3.70
2023-05-20T23:35:11.765Z,4.53
2023-05-20T23:37:39.076Z,3.97
2023-05-20T23:40:09.210Z,3.90
2023-05-20T23:42:36.937Z,3.92
2023-05-20T23:45:04.719Z,4.30
2023-05-20T23:47:32.303Z,4.45
2023-05-20T23:50:00.042Z,4.50
2023-05-20T23:52:27.117Z,5.03
2023-05-20T23:54:54.230Z,4.50
2023-05-20T23:57:21.257Z,4.47
2023-05-20T23:59:51.428Z,4.40
